Time;durP1;ratioP1;P1;durP2;ratioP2;P2;SDS_P1;SDS_P2;PMS_P1;PMS_P2;Temp;Humidity;BMP_temperature;BMP_pressure;BME280_temperature;BME280_humidity;BME280_pressure;Samples;Min_cycle;Max_cycle;Signal;HPM_P1;HPM_P2
2022/07/22 00:00:57;;;;;;;2.35;0.98;;;;;;;25.03;47.03;102089.78;5065088;28;20155;-59
2022/07/22 00:03:22;;;;;;;2.55;0.90;;;;;;;25.02;47.03;102093.50;5064810;28;20021;-59
2022/07/22 00:05:47;;;;;;;5.47;1.17;;;;;;;25.03;46.87;102089.78;5064907;28;20098;-59
2022/07/22 00:08:13;;;;;;;2.05;0.90;;;;;;;25.01;46.99;102087.22;5064547;28;20029;-60
2022/07/22 00:10:38;;;;;;;3.05;1.10;;;;;;;24.90;47.09;102072.16;5064522;28;20021;-59
2022/07/22 00:13:03;;;;;;;1.67;0.70;;;;;;;24.99;46.94;102085.72;5063432;28;20031;-60
2022/07/22 00:15:29;;;;;;;2.25;0.75;;;;;;;24.99;46.84;102085.72;5065012;28;20113;-60
2022/07/22 00:17:54;;;;;;;3.17;0.90;;;;;;;24.99;46.88;102085.72;5064835;28;20028;-60
2022/07/22 00:20:20;;;;;;;2.38;0.82;;;;;;;24.97;46.84;102085.03;5065208;28;20108;-59
2022/07/22 00:22:45;;;;;;;2.47;0.90;;;;;;;24.97;46.88;102079.59;5064654;28;20024;-59
2022/07/22 00:25:10;;;;;;;3.72;0.95;;;;;;;24.89;47.07;102069.59;5064674;28;20029;-59
2022/07/22 00:27:35;;;;;;;2.08;1.15;;;;;;;24.88;46.87;102073.38;5064707;28;20029;-59
2022/07/22 00:30:01;;;;;;;2.83;0.90;;;;;;;24.96;46.91;102086.91;5067698;28;20032;-59
2022/07/22 00:32:26;;;;;;;2.38;0.85;;;;;;;24.93;46.89;102077.25;5068573;28;20021;-60
2022/07/22 00:34:51;;;;;;;2.92;0.63;;;;;;;24.91;47.18;102071.13;5068515;28;20080;-59
2022/07/22 00:37:16;;;;;;;2.67;1.10;;;;;;;24.94;47.14;102078.94;5068291;28;20032;-59
2022/07/22 00:39:42;;;;;;;2.22;0.80;;;;;;;24.93;46.90;102077.25;5069795;28;20029;-60
2022/07/22 00:42:07;;;;;;;2.33;0.75;;;;;;;24.94;46.98;102072.66;5087920;28;20080;-60
2022/07/22 00:44:32;;;;;;;4.78;1.17;;;;;;;24.93;46.96;102073.66;5088171;28;20032;-59
2022/07/22 00:46:58;;;;;;;3.17;0.93;;;;;;;24.89;46.89;102067.75;5088252;28;20028;-60
2022/07/22 00:49:23;;;;;;;3.38;0.88;;;;;;;24.91;47.02;102068.41;5088038;28;20033;-60
2022/07/22 00:51:48;;;;;;;1.65;0.73;;;;;;;24.90;46.93;102066.72;5087963;28;20155;-59
2022/07/22 00:54:14;;;;;;;2.90;0.90;;;;;;;24.91;46.93;102070.28;5086927;28;20037;-59
2022/07/22 00:56:39;;;;;;;2.67;0.90;;;;;;;24.82;46.93;102053.19;5087835;28;20051;-59
2022/07/22 00:59:08;;;;;;;5.55;2.05;;;;;;;24.89;47.11;102067.75;5087906;28;20061;-59
2022/07/22 01:01:34;;;;;;;4.00;1.05;;;;;;;24.88;46.84;102059.75;5083391;28;20386;-59
2022/07/22 01:03:59;;;;;;;1.95;0.90;;;;;;;24.87;47.01;102063.50;5076472;28;20024;-60
2022/07/22 01:06:24;;;;;;;2.20;0.90;;;;;;;24.88;46.98;102074.22;5080062;28;20036;-59
2022/07/22 01:08:49;;;;;;;2.38;0.85;;;;;;;24.86;46.78;102070.84;5067394;28;20025;-58
2022/07/22 01:11:17;;;;;;;3.05;0.88;;;;;;;24.86;46.96;102070.84;5078345;28;20049;-58
2022/07/22 01:13:44;;;;;;;2.93;1.10;;;;;;;24.86;46.85;102072.72;5087757;28;20562;-59
2022/07/22 01:16:10;;;;;;;3.78;1.08;;;;;;;24.86;47.07;102075.44;5087659;28;20084;-59
2022/07/22 01:18:37;;;;;;;3.60;1.02;;;;;;;24.86;46.97;102070.00;5086298;28;20084;-59
2022/07/22 01:21:04;;;;;;;3.17;1.10;;;;;;;24.79;46.87;102055.41;5067649;28;20021;-60
2022/07/22 01:23:29;;;;;;;3.15;1.00;;;;;;;24.85;47.08;102069.16;5067561;28;20025;-60
2022/07/22 01:25:54;;;;;;;1.50;0.60;;;;;;;24.84;46.84;102072.88;5067202;28;20044;-60
2022/07/22 01:28:20;;;;;;;4.50;1.45;;;;;;;24.84;47.13;102069.31;5067224;28;20031;-60
2022/07/22 01:30:45;;;;;;;2.15;0.90;;;;;;;24.81;47.16;102070.53;5067367;28;20530;-59
2022/07/22 01:33:11;;;;;;;1.95;0.82;;;;;;;24.81;46.93;102062.38;5067311;28;20077;-60
2022/07/22 01:35:36;;;;;;;3.60;0.80;;;;;;;24.82;47.17;102074.94;5067786;28;20055;-59
2022/07/22 01:38:01;;;;;;;3.05;1.10;;;;;;;24.82;47.10;102071.38;5086921;28;20389;-59
2022/07/22 01:40:27;;;;;;;2.65;0.82;;;;;;;24.80;46.92;102071.53;5085391;28;20033;-58
2022/07/22 01:42:52;;;;;;;3.92;0.90;;;;;;;24.80;46.94;102082.41;5086718;28;20048;-60
2022/07/22 01:45:17;;;;;;;4.00;0.80;;;;;;;24.80;47.09;102078.84;5087254;28;20051;-60
2022/07/22 01:47:42;;;;;;;3.13;0.60;;;;;;;24.78;47.01;102079.03;5087191;28;20035;-59
2022/07/22 01:50:09;;;;;;;2.97;0.90;;;;;;;24.78;47.06;102080.94;5086870;28;20039;-60
2022/07/22 01:52:35;;;;;;;1.98;1.10;;;;;;;24.77;46.96;102077.34;5086765;28;20027;-60
2022/07/22 01:55:00;;;;;;;5.25;0.95;;;;;;;24.75;46.95;102073.97;5086645;28;20028;-60
2022/07/22 01:57:25;;;;;;;1.98;1.05;;;;;;;24.75;47.05;102076.69;5086575;28;20039;-60
2022/07/22 01:59:51;;;;;;;2.25;0.70;;;;;;;24.76;47.01;102074.81;5086695;28;20027;-60
2022/07/22 02:02:16;;;;;;;2.83;0.80;;;;;;;24.76;46.76;102074.81;5086698;28;20029;-60
2022/07/22 02:04:41;;;;;;;3.25;1.20;;;;;;;24.71;46.87;102064.47;5086809;28;20028;-60
2022/07/22 02:07:06;;;;;;;2.45;0.93;;;;;;;24.75;47.06;102073.13;5086819;28;20033;-59
2022/07/22 02:09:31;;;;;;;3.55;0.80;;;;;;;24.74;47.03;102064.09;5086587;28;20027;-60
2022/07/22 02:11:57;;;;;;;3.00;1.02;;;;;;;24.75;47.00;102073.13;5066947;28;20059;-60
2022/07/22 02:14:22;;;;;;;2.72;1.10;;;;;;;24.74;47.01;102071.44;5065305;28;20036;-59
2022/07/22 02:16:47;;;;;;;1.67;0.70;;;;;;;24.74;47.04;102071.44;5066456;28;20040;-59
2022/07/22 02:19:12;;;;;;;2.60;0.77;;;;;;;24.62;46.83;102052.78;5066313;28;20021;-60
2022/07/22 02:21:38;;;;;;;2.92;1.00;;;;;;;24.72;46.66;102078.91;5066399;28;20044;-60
2022/07/22 02:24:03;;;;;;;2.78;1.10;;;;;;;24.63;46.85;102062.63;5066432;28;20068;-60
2022/07/22 02:26:29;;;;;;;2.53;1.08;;;;;;;24.68;46.82;102073.84;5065941;28;20046;-59
2022/07/22 02:28:54;;;;;;;3.65;1.10;;;;;;;24.70;46.91;102070.94;5066129;28;20029;-60
2022/07/22 02:31:20;;;;;;;4.25;1.30;;;;;;;24.69;46.86;102069.25;5066223;28;20025;-58
2022/07/22 02:33:45;;;;;;;4.05;0.98;;;;;;;24.68;46.94;102064.84;5066227;28;20025;-59
2022/07/22 02:36:11;;;;;;;2.17;0.80;;;;;;;24.68;46.82;102062.97;5066271;28;20029;-59
2022/07/22 02:38:36;;;;;;;3.97;0.98;;;;;;;24.54;46.69;102036.53;5065794;28;20025;-59
2022/07/22 02:41:02;;;;;;;3.88;1.15;;;;;;;24.67;46.73;102057.69;5065576;28;20025;-59
2022/07/22 02:43:27;;;;;;;5.07;1.45;;;;;;;24.66;46.71;102056.84;5065784;28;20045;-58
2022/07/22 02:45:52;;;;;;;3.45;1.00;;;;;;;24.65;46.75;102052.44;5065751;28;20088;-60
2022/07/22 02:48:17;;;;;;;3.63;1.13;;;;;;;24.64;46.58;102047.19;5065636;28;20055;-60
2022/07/22 02:50:46;;;;;;;2.65;0.95;;;;;;;24.62;46.77;102043.78;5065668;28;20032;-60
2022/07/22 02:53:12;;;;;;;1.88;0.90;;;;;;;24.65;46.86;102052.44;5065393;28;20021;-60
2022/07/22 02:55:37;;;;;;;2.80;1.10;;;;;;;24.64;47.12;102049.91;5064253;28;20123;-60
2022/07/22 02:58:07;;;;;;;2.10;0.90;;;;;;;24.64;46.76;102047.19;5065749;28;20036;-59
2022/07/22 03:00:32;;;;;;;2.95;1.30;;;;;;;24.63;46.87;102048.19;5065661;28;20028;-59
2022/07/22 03:02:58;;;;;;;2.90;1.10;;;;;;;24.63;46.84;102053.63;5065286;28;20059;-59
2022/07/22 03:05:23;;;;;;;1.83;0.73;;;;;;;24.62;46.87;102057.38;5065616;28;20062;-59
2022/07/22 03:07:48;;;;;;;3.47;1.23;;;;;;;24.61;46.85;102050.25;5065179;28;20032;-59
2022/07/22 03:10:14;;;;;;;3.05;1.27;;;;;;;24.61;46.80;102066.56;5069649;28;20048;-59
2022/07/22 03:12:39;;;;;;;2.50;1.35;;;;;;;24.51;46.96;102047.78;5085453;28;20535;-59
2022/07/22 03:15:05;;;;;;;3.35;1.00;;;;;;;24.59;47.08;102068.59;5085309;28;20063;-60
2022/07/22 03:17:34;;;;;;;2.13;0.93;;;;;;;24.58;46.90;102067.75;5085497;28;20055;-60
2022/07/22 03:20:05;;;;;;;1.35;0.80;;;;;;;24.53;46.83;102059.31;5085406;28;20091;-60
2022/07/22 03:22:30;;;;;;;2.22;1.20;;;;;;;24.58;46.99;102070.47;5085409;28;20024;-59
2022/07/22 03:24:55;;;;;;;3.17;1.10;;;;;;;24.58;47.04;102072.34;5080570;28;20056;-59
2022/07/22 03:27:20;;;;;;;2.80;1.10;;;;;;;24.56;46.94;102067.13;5075670;28;20482;-60
2022/07/22 03:29:46;;;;;;;3.50;1.00;;;;;;;24.56;46.67;102067.13;5076287;28;20474;-60
2022/07/22 03:32:11;;;;;;;2.38;0.93;;;;;;;24.57;46.93;102057.91;5065295;28;20112;-59
2022/07/22 03:34:36;;;;;;;2.78;0.90;;;;;;;24.56;47.04;102055.41;5078317;28;20024;-59
2022/07/22 03:37:02;;;;;;;1.85;0.80;;;;;;;24.37;47.01;102027.59;5085211;28;20039;-60
2022/07/22 03:39:27;;;;;;;3.97;1.10;;;;;;;24.54;46.84;102057.44;5085022;28;20029;-59
2022/07/22 03:41:52;;;;;;;4.93;1.30;;;;;;;24.54;46.78;102052.00;5081200;28;20064;-60
2022/07/22 03:44:17;;;;;;;1.75;0.80;;;;;;;24.53;46.83;102055.75;5065172;28;20022;-60
2022/07/22 03:46:43;;;;;;;3.05;1.33;;;;;;;24.52;47.00;102056.78;5065089;28;20466;-60
2022/07/22 03:49:08;;;;;;;2.05;1.10;;;;;;;24.53;46.89;102062.03;5065078;28;20044;-60
2022/07/22 03:51:33;;;;;;;3.20;1.17;;;;;;;24.51;46.76;102058.66;5065241;28;20025;-60
2022/07/22 03:53:58;;;;;;;3.22;1.00;;;;;;;24.52;46.88;102062.22;5064708;28;20108;-60
2022/07/22 03:56:24;;;;;;;3.88;1.10;;;;;;;24.51;46.85;102064.09;5064602;28;20040;-60
2022/07/22 03:58:49;;;;;;;3.80;1.13;;;;;;;24.51;46.97;102066.81;5066268;28;20025;-60
2022/07/22 04:01:14;;;;;;;3.22;1.35;;;;;;;24.50;47.10;102065.09;5085085;28;20036;-59
2022/07/22 04:03:39;;;;;;;3.67;1.27;;;;;;;24.49;47.09;102063.41;5085581;28;20039;-60
2022/07/22 04:06:06;;;;;;;2.10;1.00;;;;;;;24.50;47.04;102066.97;5089244;28;20107;-60
2022/07/22 04:08:31;;;;;;;3.90;2.10;;;;;;;24.50;46.89;102075.97;5088729;28;20032;-60
2022/07/22 04:10:57;;;;;;;3.38;1.25;;;;;;;24.49;47.03;102070.72;5088479;28;20025;-60
2022/07/22 04:13:22;;;;;;;1.85;0.90;;;;;;;24.48;46.93;102078.03;5088764;28;20074;-60
2022/07/22 04:15:47;;;;;;;6.03;1.20;;;;;;;24.44;47.06;102071.25;5088894;28;20028;-60
2022/07/22 04:18:13;;;;;;;4.47;1.30;;;;;;;24.48;47.15;102063.59;5088720;28;20064;-60
2022/07/22 04:20:38;;;;;;;1.92;0.85;;;;;;;24.35;47.00;102054.09;5088686;28;20028;-60
2022/07/22 04:23:03;;;;;;;2.65;1.60;;;;;;;24.46;47.00;102073.78;5087200;28;20029;-60
2022/07/22 04:25:28;;;;;;;4.72;1.17;;;;;;;24.46;47.18;102076.50;5088413;28;20036;-59
2022/07/22 04:27:54;;;;;;;2.53;1.10;;;;;;;24.42;47.19;102076.88;5088388;28;20405;-60
2022/07/22 04:30:19;;;;;;;2.63;0.90;;;;;;;24.44;47.13;102077.53;5088681;28;20025;-59
2022/07/22 04:32:45;;;;;;;2.80;1.20;;;;;;;24.43;47.17;102073.13;5088197;28;20022;-57
2022/07/22 04:35:10;;;;;;;3.45;1.10;;;;;;;24.43;47.12;102069.56;5068487;28;20017;-59
2022/07/22 04:37:35;;;;;;;2.33;1.08;;;;;;;24.42;47.33;102070.56;5068355;28;20063;-59
2022/07/22 04:40:00;;;;;;;3.72;0.95;;;;;;;24.43;47.05;102073.13;5067818;28;20017;-59
2022/07/22 04:42:26;;;;;;;4.80;1.10;;;;;;;24.42;47.25;102063.28;5067961;28;20041;-59
2022/07/22 04:44:51;;;;;;;2.63;1.20;;;;;;;24.42;47.22;102066.00;5068005;28;20025;-59
2022/07/22 04:47:16;;;;;;;3.45;1.13;;;;;;;24.43;47.08;102059.53;5068266;28;20027;-59
2022/07/22 04:49:41;;;;;;;3.92;1.00;;;;;;;24.41;47.01;102053.41;5067841;28;20048;-59
2022/07/22 04:52:08;;;;;;;3.25;1.30;;;;;;;24.41;47.20;102052.56;5068021;28;20063;-58
2022/07/22 04:54:33;;;;;;;4.15;1.17;;;;;;;24.40;47.15;102062.59;5067934;28;20025;-60
2022/07/22 04:56:58;;;;;;;3.60;1.13;;;;;;;24.40;47.09;102062.59;5066365;28;20243;-59
2022/07/22 04:59:23;;;;;;;2.50;1.10;;;;;;;24.41;47.09;102060.72;5067808;28;20176;-60
2022/07/22 05:01:49;;;;;;;4.85;1.20;;;;;;;24.41;47.15;102058.00;5067811;28;20036;-60
2022/07/22 05:04:14;;;;;;;1.95;1.17;;;;;;;24.39;47.05;102063.63;5067023;28;20029;-60
2022/07/22 05:06:39;;;;;;;1.88;0.95;;;;;;;24.39;47.06;102066.34;5060235;28;20028;-60
2022/07/22 05:09:05;;;;;;;2.97;1.42;;;;;;;24.40;47.11;102061.75;5047331;28;20091;-60
2022/07/22 05:11:30;;;;;;;2.67;1.27;;;;;;;24.38;47.33;102063.78;5047061;28;20075;-60
2022/07/22 05:13:55;;;;;;;3.83;1.05;;;;;;;24.39;47.13;102060.91;5047381;28;20032;-60
2022/07/22 05:16:21;;;;;;;1.70;0.95;;;;;;;24.39;47.13;102054.63;5054433;28;20032;-60
2022/07/22 05:18:46;;;;;;;1.95;0.88;;;;;;;24.34;47.45;102044.25;5067449;28;20031;-60
2022/07/22 05:21:11;;;;;;;2.25;0.90;;;;;;;24.39;46.92;102062.78;5067459;28;20025;-60
2022/07/22 05:23:37;;;;;;;1.90;1.02;;;;;;;24.37;47.04;102065.66;5067059;28;20450;-60
2022/07/22 05:26:04;;;;;;;2.00;1.05;;;;;;;24.33;47.12;102053.41;5066789;28;20100;-60
2022/07/22 05:28:29;;;;;;;1.88;1.08;;;;;;;24.36;47.13;102061.22;5066920;28;20061;-60
2022/07/22 05:30:54;;;;;;;4.45;1.20;;;;;;;24.37;47.20;102062.06;5067410;28;20021;-60
2022/07/22 05:33:20;;;;;;;4.50;1.38;;;;;;;24.36;47.14;102057.66;5071946;28;20074;-59
2022/07/22 05:35:45;;;;;;;2.83;1.00;;;;;;;24.36;47.33;102060.38;5087323;28;20017;-59
2022/07/22 05:38:10;;;;;;;3.70;1.13;;;;;;;24.36;47.24;102065.81;5085821;28;20040;-59
2022/07/22 05:40:35;;;;;;;2.53;1.20;;;;;;;24.36;47.20;102071.25;5086497;28;20039;-59
2022/07/22 05:43:01;;;;;;;3.67;1.20;;;;;;;24.35;47.32;102070.41;5086531;28;20040;-60
2022/07/22 05:45:26;;;;;;;3.28;1.00;;;;;;;24.35;47.23;102072.28;5086940;28;20103;-59
2022/07/22 05:47:51;;;;;;;1.63;0.93;;;;;;;24.35;47.23;102077.72;5086981;28;20401;-59
2022/07/22 05:50:17;;;;;;;3.50;1.50;;;;;;;24.34;47.04;102076.88;5086732;28;20075;-60
2022/07/22 05:52:42;;;;;;;2.15;1.05;;;;;;;24.33;47.22;102077.03;5086656;28;20028;-60
2022/07/22 05:55:07;;;;;;;2.45;1.17;;;;;;;24.35;47.10;102080.44;5086323;28;20032;-59
2022/07/22 05:57:33;;;;;;;4.20;1.17;;;;;;;24.34;47.06;102078.72;5086674;28;20039;-60
2022/07/22 05:59:58;;;;;;;3.42;1.17;;;;;;;24.32;47.03;102084.34;5086592;28;20024;-61
2022/07/22 06:02:23;;;;;;;4.53;1.00;;;;;;;24.33;46.94;102086.03;5086653;28;20043;-60
2022/07/22 06:04:48;;;;;;;2.95;1.25;;;;;;;24.33;47.10;102085.19;5086586;28;20028;-60
2022/07/22 06:07:14;;;;;;;3.35;1.30;;;;;;;24.34;46.96;102089.59;5086767;28;20077;-60
2022/07/22 06:09:39;;;;;;;2.53;0.90;;;;;;;24.33;46.64;102086.03;5086467;28;20523;-58
2022/07/22 06:12:05;;;;;;;2.33;1.13;;;;;;;24.28;46.89;102085.72;5086141;28;20090;-58
2022/07/22 06:14:30;;;;;;;1.73;0.80;;;;;;;24.31;47.12;102079.09;5086456;28;20045;-59
2022/07/22 06:16:56;;;;;;;2.25;1.05;;;;;;;24.32;46.81;102081.63;5086599;28;20020;-59
2022/07/22 06:19:21;;;;;;;3.90;1.10;;;;;;;24.33;46.78;102082.47;5086512;28;20037;-60
2022/07/22 06:21:46;;;;;;;2.45;1.27;;;;;;;24.32;46.77;102086.22;5086286;28;20426;-56
2022/07/22 06:24:11;;;;;;;4.03;1.52;;;;;;;24.32;46.67;102083.50;5086269;28;20056;-60
2022/07/22 06:26:36;;;;;;;2.13;1.00;;;;;;;24.32;46.79;102069.91;5085024;28;20025;-59
2022/07/22 06:29:02;;;;;;;2.72;1.15;;;;;;;24.32;46.71;102075.34;5085929;28;20031;-59
2022/07/22 06:31:27;;;;;;;2.60;1.00;;;;;;;24.32;46.58;102078.06;5086296;28;20020;-59
2022/07/22 06:33:52;;;;;;;1.75;0.80;;;;;;;24.30;46.67;102083.69;5076385;28;20025;-60
2022/07/22 06:36:18;;;;;;;2.33;0.82;;;;;;;24.28;46.54;102082.16;5065999;28;20020;-59
2022/07/22 06:38:43;;;;;;;2.92;0.95;;;;;;;24.28;46.65;102080.28;5065562;28;20028;-60
2022/07/22 06:41:09;;;;;;;3.05;0.85;;;;;;;24.30;46.57;102080.97;5065574;28;20493;-58
2022/07/22 06:43:35;;;;;;;2.65;0.77;;;;;;;24.31;46.58;102085.38;5065314;28;20105;-58
2022/07/22 06:46:00;;;;;;;3.40;1.10;;;;;;;24.31;46.65;102081.81;5065941;28;20025;-59
2022/07/22 06:48:25;;;;;;;3.95;1.02;;;;;;;24.30;45.98;102080.09;5065636;28;20032;-59
2022/07/22 06:50:51;;;;;;;2.88;1.08;;;;;;;24.25;46.40;102075.19;5065745;28;20094;-59
2022/07/22 06:53:16;;;;;;;2.80;0.90;;;;;;;24.30;46.28;102080.97;5065537;28;20025;-60
2022/07/22 06:55:41;;;;;;;3.22;1.02;;;;;;;24.30;46.35;102086.41;5064980;28;20029;-60
2022/07/22 06:58:07;;;;;;;2.67;0.93;;;;;;;24.30;46.38;102089.13;5065407;28;20093;-58
2022/07/22 07:00:32;;;;;;;3.08;0.95;;;;;;;24.29;46.20;102084.69;5065165;28;20029;-60
2022/07/22 07:02:59;;;;;;;1.60;0.90;;;;;;;24.30;46.03;102091.84;5065470;28;20032;-60
2022/07/22 07:05:24;;;;;;;3.95;1.00;;;;;;;24.30;46.25;102085.53;5065670;28;20056;-59
2022/07/22 07:07:50;;;;;;;1.52;0.90;;;;;;;24.30;46.19;102082.81;5065763;28;20086;-59
2022/07/22 07:10:15;;;;;;;2.35;0.90;;;;;;;24.27;46.09;102075.88;5064739;28;20385;-60
2022/07/22 07:12:40;;;;;;;2.08;0.98;;;;;;;24.30;46.03;102072.81;5065222;28;20029;-59
2022/07/22 07:15:06;;;;;;;2.40;0.90;;;;;;;24.31;45.95;102074.50;5065291;28;20036;-59
2022/07/22 07:17:31;;;;;;;2.63;0.95;;;;;;;24.30;46.01;102071.94;5065660;28;20036;-59
2022/07/22 07:19:56;;;;;;;5.75;1.05;;;;;;;24.23;45.86;102063.66;5065272;28;20040;-59
2022/07/22 07:22:22;;;;;;;1.60;0.93;;;;;;;24.30;45.85;102072.81;5065583;28;20052;-59
2022/07/22 07:24:47;;;;;;;2.15;1.17;;;;;;;24.30;45.91;102063.78;5065485;28;20028;-58
2022/07/22 07:27:12;;;;;;;3.80;1.40;;;;;;;24.30;45.64;102064.66;5063700;28;20036;-59
2022/07/22 07:29:37;;;;;;;2.10;0.93;;;;;;;24.21;45.70;102057.53;5064839;28;20096;-60
2022/07/22 07:32:03;;;;;;;2.70;1.05;;;;;;;24.30;45.61;102078.25;5065296;28;20024;-59
2022/07/22 07:34:28;;;;;;;2.42;1.00;;;;;;;24.29;45.48;102071.09;5079497;28;20032;-59
2022/07/22 07:36:54;;;;;;;2.45;0.90;;;;;;;24.19;45.48;102054.16;5084143;28;20020;-59
2022/07/22 07:39:19;;;;;;;3.63;0.88;;;;;;;24.29;45.41;102071.09;5084595;28;20031;-59
2022/07/22 07:41:45;;;;;;;2.78;0.80;;;;;;;24.01;45.50;102032.69;5084088;28;20045;-59
2022/07/22 07:44:10;;;;;;;2.75;0.80;;;;;;;24.29;45.29;102073.81;5084843;28;20074;-59
2022/07/22 07:46:35;;;;;;;2.60;1.00;;;;;;;24.26;45.38;102062.47;5084874;28;20032;-60
2022/07/22 07:49:00;;;;;;;3.67;1.05;;;;;;;24.22;44.95;102066.56;5084987;28;20028;-60
2022/07/22 07:51:26;;;;;;;2.30;1.05;;;;;;;24.30;45.31;102080.09;5085135;28;20035;-60
2022/07/22 07:53:51;;;;;;;2.40;0.95;;;;;;;24.24;45.16;102067.22;5084775;28;20020;-60
2022/07/22 07:56:16;;;;;;;2.53;0.88;;;;;;;24.18;45.24;102058.75;5084694;28;20573;-59
2022/07/22 07:58:42;;;;;;;2.28;0.95;;;;;;;24.32;45.31;102076.19;5084709;28;20111;-59
2022/07/22 08:01:07;;;;;;;1.42;1.08;;;;;;;24.26;45.51;102065.19;5085127;28;20035;-59
2022/07/22 08:03:33;;;;;;;3.72;1.05;;;;;;;24.25;45.56;102068.91;5084698;28;20025;-60
2022/07/22 08:05:59;;;;;;;2.88;0.93;;;;;;;24.32;45.57;102076.19;5085168;28;20049;-59
2022/07/22 08:08:25;;;;;;;3.28;1.10;;;;;;;24.33;45.50;102077.03;5084789;28;20032;-59
2022/07/22 08:10:50;;;;;;;2.45;0.88;;;;;;;24.30;45.29;102072.81;5084341;28;20085;-59
2022/07/22 08:13:15;;;;;;;2.67;1.02;;;;;;;24.33;45.42;102079.75;5084579;28;20111;-59
2022/07/22 08:15:41;;;;;;;1.80;0.80;;;;;;;24.32;45.77;102076.19;5084716;28;20035;-60
2022/07/22 08:18:06;;;;;;;1.92;1.15;;;;;;;24.33;45.40;102079.75;5084994;28;20092;-60
2022/07/22 08:20:32;;;;;;;2.45;0.95;;;;;;;24.22;45.34;102064.69;5084424;28;20040;-60
2022/07/22 08:22:57;;;;;;;2.75;0.85;;;;;;;24.26;45.45;102065.19;5084538;28;20029;-59
2022/07/22 08:25:22;;;;;;;2.42;0.90;;;;;;;24.33;45.52;102080.59;5083980;28;20032;-60
2022/07/22 08:27:48;;;;;;;3.20;0.90;;;;;;;24.33;45.41;102085.19;5083456;28;20052;-60
2022/07/22 08:30:13;;;;;;;2.08;0.98;;;;;;;24.28;45.36;102079.44;5084274;28;20028;-59
2022/07/22 08:32:38;;;;;;;2.58;1.20;;;;;;;24.33;45.33;102087.91;5084606;28;20025;-59
2022/07/22 08:35:05;;;;;;;2.55;1.00;;;;;;;24.33;45.40;102096.06;5065072;28;20025;-60
2022/07/22 08:37:30;;;;;;;3.00;0.93;;;;;;;24.33;45.47;102094.19;5064725;28;20031;-60
2022/07/22 08:39:55;;;;;;;2.17;0.90;;;;;;;24.33;45.35;102088.75;5063704;28;20033;-59
2022/07/22 08:42:22;;;;;;;3.10;1.05;;;;;;;24.33;45.29;102080.59;5063767;28;20049;-59
2022/07/22 08:44:47;;;;;;;2.88;1.52;;;;;;;24.33;45.17;102083.31;5064294;28;20108;-58
2022/07/22 08:47:12;;;;;;;2.20;0.90;;;;;;;24.33;45.34;102082.47;5064595;28;20029;-59
2022/07/22 08:49:39;;;;;;;1.63;0.90;;;;;;;24.32;45.34;102080.78;5064825;28;20026;-60
2022/07/22 08:52:04;;;;;;;3.60;1.30;;;;;;;24.33;45.24;102088.75;5068194;28;20036;-60
2022/07/22 08:54:29;;;;;;;3.10;0.80;;;;;;;24.33;45.35;102082.47;5068164;28;20029;-60
2022/07/22 08:56:54;;;;;;;2.25;1.00;;;;;;;24.33;45.23;102088.75;5067828;28;20442;-60
2022/07/22 08:59:20;;;;;;;3.15;1.38;;;;;;;24.33;45.38;102091.47;5067687;28;20028;-60
2022/07/22 09:02:21;;;;;;;2.65;1.08;;;;;;;24.34;45.30;102078.72;5067977;28;20028;-60
2022/07/22 09:04:50;;;;;;;2.28;1.23;;;;;;;24.34;45.21;102078.72;5045168;28;20057;-60
2022/07/22 09:07:30;;;;;;;1.55;0.82;;;;;;;24.35;44.80;102084.00;5045619;28;20041;-59
2022/07/22 09:09:56;;;;;;;2.88;1.00;;;;;;;24.36;45.45;102082.13;5028303;28;20033;-60
2022/07/22 09:12:22;;;;;;;3.15;1.25;;;;;;;24.35;45.35;102081.28;5045122;28;20071;-60
2022/07/22 09:14:52;;;;;;;2.47;1.38;;;;;;;24.36;45.46;102068.53;5044927;28;20108;-58
2022/07/22 09:17:30;;;;;;;1.10;0.75;;;;;;;24.37;45.32;102079.25;5045310;28;20101;-60
2022/07/22 09:19:56;;;;;;;1.60;0.90;;;;;;;24.38;45.26;102071.94;5044885;28;20545;-59
2022/07/22 09:22:42;;;;;;;2.15;1.13;;;;;;;24.38;45.33;102067.38;5045176;28;20435;-60
2022/07/22 09:25:26;;;;;;;3.72;1.02;;;;;;;24.31;45.35;102054.63;5044194;28;20037;-58
2022/07/22 09:27:53;;;;;;;2.17;1.00;;;;;;;24.39;45.36;102071.78;5044842;28;20510;-59
2022/07/22 09:30:22;;;;;;;2.97;0.90;;;;;;;24.40;45.05;102072.63;5044825;28;20029;-60
2022/07/22 09:32:48;;;;;;;1.80;0.90;;;;;;;24.39;45.20;102071.78;5044997;28;20104;-58
2022/07/22 09:35:15;;;;;;;3.53;0.88;;;;;;;24.39;45.39;102073.66;5064849;28;20033;-59
2022/07/22 09:38:08;;;;;;;1.77;0.90;;;;;;;24.40;45.12;102068.03;5066085;28;20033;-59
2022/07/22 09:40:39;;;;;;;2.85;0.90;;;;;;;24.40;44.89;102078.06;5085523;28;20032;-59
2022/07/22 09:43:06;;;;;;;1.95;0.88;;;;;;;24.39;45.11;102071.78;5086827;28;20070;-59
2022/07/22 09:45:33;;;;;;;1.70;0.80;;;;;;;24.40;45.05;102067.19;5085598;28;20074;-59
2022/07/22 09:48:00;;;;;;;1.88;0.75;;;;;;;24.40;45.16;102069.91;5087464;28;20082;-59
2022/07/22 09:50:27;;;;;;;1.75;0.80;;;;;;;24.40;45.18;102062.59;5086739;28;20032;-59
2022/07/22 09:52:54;;;;;;;1.65;0.98;;;;;;;24.40;45.27;102059.03;5086908;28;20406;-59
2022/07/22 09:55:21;;;;;;;1.85;0.90;;;;;;;24.40;45.24;102048.16;5086127;28;20024;-59
2022/07/22 09:57:47;;;;;;;1.55;0.73;;;;;;;24.34;45.16;102044.25;5087198;28;20107;-59
2022/07/22 10:00:14;;;;;;;2.47;1.45;;;;;;;24.41;45.17;102053.41;5086610;28;20025;-59
2022/07/22 10:02:45;;;;;;;2.15;1.20;;;;;;;24.42;45.41;102065.13;5085724;28;20055;-58
2022/07/22 10:05:12;;;;;;;3.70;1.42;;;;;;;24.42;45.04;102073.28;5086670;28;20025;-59
2022/07/22 10:07:38;;;;;;;2.08;0.90;;;;;;;24.43;44.97;102078.56;5086512;28;20059;-60
2022/07/22 10:10:03;;;;;;;2.55;1.15;;;;;;;24.44;45.09;102066.66;5084438;28;20032;-59
2022/07/22 10:12:30;;;;;;;3.10;0.93;;;;;;;24.46;45.06;102054.75;5085346;28;20077;-59
2022/07/22 10:14:56;;;;;;;2.30;0.90;;;;;;;24.46;45.03;102057.47;5086610;28;20028;-59
2022/07/22 10:17:21;;;;;;;1.90;0.80;;;;;;;24.47;45.33;102059.16;5085056;28;20048;-59
2022/07/22 10:19:47;;;;;;;1.77;0.90;;;;;;;24.47;44.90;102057.31;5086214;28;20393;-58
2022/07/22 10:22:44;;;;;;;2.15;1.10;;;;;;;24.48;44.84;102058.16;5084950;28;20025;-58
2022/07/22 10:25:11;;;;;;;2.28;1.20;;;;;;;24.40;44.69;102059.88;5085623;28;20150;-59
2022/07/22 10:27:57;;;;;;;2.42;1.00;;;;;;;24.49;44.98;102059.84;5086431;28;20040;-58
2022/07/22 10:30:38;;;;;;;2.88;0.90;;;;;;;24.49;44.77;102054.41;5085725;28;20107;-59
2022/07/22 10:33:06;;;;;;;3.53;1.83;;;;;;;24.49;44.68;102051.69;5083566;28;20017;-59
2022/07/22 10:35:33;;;;;;;1.80;1.00;;;;;;;24.47;44.79;102056.44;5066112;28;20027;-59
2022/07/22 10:38:00;;;;;;;1.90;0.85;;;;;;;24.47;44.85;102056.44;5066256;28;20032;-59
2022/07/22 10:40:48;;;;;;;3.10;1.27;;;;;;;24.47;44.85;102054.59;5065386;28;20032;-60
2022/07/22 10:43:15;;;;;;;2.75;1.40;;;;;;;24.48;44.82;102050.00;5065332;28;20218;-60
2022/07/22 10:45:43;;;;;;;1.35;0.85;;;;;;;24.49;44.97;102054.41;5065603;28;20041;-59
2022/07/22 10:48:10;;;;;;;2.75;0.80;;;;;;;24.49;44.78;102049.81;5066172;28;20029;-59
2022/07/22 10:50:35;;;;;;;1.75;0.80;;;;;;;24.50;44.64;102053.38;5065695;28;20406;-59
2022/07/22 10:53:08;;;;;;;3.97;1.27;;;;;;;24.49;44.66;102052.53;5066110;28;20025;-60
2022/07/22 10:55:34;;;;;;;3.40;1.17;;;;;;;24.50;44.51;102062.38;5065538;28;20155;-59
2022/07/22 10:58:00;;;;;;;1.60;1.05;;;;;;;24.51;44.54;102060.50;5065876;28;20033;-59
2022/07/22 11:00:26;;;;;;;1.95;0.90;;;;;;;24.44;44.49;102058.50;5065665;28;20036;-59
2022/07/22 11:02:51;;;;;;;2.65;0.90;;;;;;;24.37;44.51;102046.63;5065416;28;20445;-59
2022/07/22 11:05:27;;;;;;;1.83;0.95;;;;;;;24.50;44.60;102056.09;5065357;28;20029;-59
2022/07/22 11:07:53;;;;;;;2.67;0.80;;;;;;;24.49;44.53;102055.25;5065347;28;20032;-59
2022/07/22 11:10:19;;;;;;;1.10;0.50;;;;;;;24.50;44.49;102058.81;5064760;28;20025;-59
2022/07/22 11:12:46;;;;;;;2.15;0.63;;;;;;;24.49;44.48;102049.81;5064668;28;20071;-60
2022/07/22 11:15:11;;;;;;;1.70;0.75;;;;;;;24.49;44.54;102057.13;5065424;28;20075;-60
2022/07/22 11:17:37;;;;;;;2.50;1.00;;;;;;;24.44;44.46;102047.63;5065254;28;20024;-59
2022/07/22 11:20:07;;;;;;;3.58;1.08;;;;;;;24.48;44.31;102060.88;5065212;28;20027;-60